createdAt,value
2019-05-21T00:02:17.243Z,101223.26
2019-05-21T00:04:49.012Z,101228.81
2019-05-21T00:07:20.869Z,101231.85
2019-05-21T00:09:53.008Z,101225.65
2019-05-21T00:12:25.033Z,101222.25
2019-05-21T00:14:56.824Z,101226.10
2019-05-21T00:17:30.241Z,101219.34
2019-05-21T00:20:02.038Z,101220.04
2019-05-21T00:22:33.912Z,101224.27
2019-05-21T00:25:06.553Z,101221.56
2019-05-21T00:27:38.531Z,101218.70
2019-05-21T00:31:04.262Z,101217.72
2019-05-21T00:34:43.059Z,101210.14
2019-05-21T00:37:57.276Z,101209.36
2019-05-21T00:41:23.211Z,101213.09
2019-05-21T00:43:59.553Z,101218.77
2019-05-21T00:46:31.532Z,101215.42
2019-05-21T00:49:03.317Z,101217.08
2019-05-21T00:51:35.141Z,101214.02
2019-05-21T00:54:06.853Z,101206.08
2019-05-21T00:56:40.463Z,101202.12
2019-05-21T00:59:12.450Z,101210.06
2019-05-21T01:01:44.151Z,101197.72
2019-05-21T01:04:16.018Z,101197.19
2019-05-21T01:06:47.735Z,101195.34
2019-05-21T01:09:19.528Z,101201.62
2019-05-21T01:11:51.519Z,101199.48
2019-05-21T01:14:23.210Z,101203.31
2019-05-21T01:16:57.045Z,101205.17
2019-05-21T01:19:28.838Z,101197.70
2019-05-21T01:22:00.546Z,101203.78
2019-05-21T01:24:32.219Z,101202.06
2019-05-21T01:27:04.099Z,101200.88
2019-05-21T01:29:36.178Z,101207.90
2019-05-21T01:32:09.103Z,101209.26
2019-05-21T01:34:41.755Z,101211.04
2019-05-21T01:37:13.506Z,101212.20
2019-05-21T01:39:45.232Z,101214.80
2019-05-21T01:42:17.058Z,101214.30
2019-05-21T01:44:48.992Z,101216.41
2019-05-21T01:47:20.688Z,101219.88
2019-05-21T01:49:53.797Z,101225.20
2019-05-21T01:52:25.664Z,101220.39
2019-05-21T01:54:57.634Z,101221.81
2019-05-21T01:57:29.310Z,101226.19
2019-05-21T02:00:01.003Z,101227.88
2019-05-21T02:02:32.709Z,101235.36
2019-05-21T02:05:06.834Z,101240.75
2019-05-21T02:07:39.103Z,101236.84
2019-05-21T02:10:11.181Z,101243.93
2019-05-21T02:12:42.939Z,101237.71
2019-05-21T02:15:15.143Z,101236.36
2019-05-21T02:17:46.812Z,101233.22
2019-05-21T02:20:18.859Z,101240.29
2019-05-21T02:22:50.843Z,101249.22
2019-05-21T02:25:23.678Z,101245.75
2019-05-21T02:27:55.484Z,101252.78
2019-05-21T02:30:27.326Z,101249.66
2019-05-21T02:32:59.039Z,101251.02
2019-05-21T02:35:30.974Z,101252.80
2019-05-21T02:38:02.860Z,101249.25
2019-05-21T02:40:35.035Z,101256.75
2019-05-21T02:43:07.133Z,101254.13
2019-05-21T02:45:39.433Z,101257.54
2019-05-21T02:48:11.356Z,101255.92
2019-05-21T02:50:43.228Z,101264.75
2019-05-21T02:53:15.110Z,101249.73
2019-05-21T02:55:46.835Z,101258.11
2019-05-21T02:58:18.537Z,101256.80
2019-05-21T03:01:07.972Z,101243.56
2019-05-21T03:03:39.732Z,101256.34
2019-05-21T03:06:14.503Z,101258.58
2019-05-21T03:08:45.850Z,101253.72
2019-05-21T03:11:17.822Z,101253.75
2019-05-21T03:13:49.878Z,101258.55
2019-05-21T03:16:23.010Z,101256.34
2019-05-21T03:18:54.930Z,101259.84
2019-05-21T03:21:27.145Z,101261.55
2019-05-21T03:23:59.014Z,101266.09
2019-05-21T03:26:30.961Z,101264.77
2019-05-21T03:29:03.750Z,101274.89
2019-05-21T03:31:35.994Z,101280.66
2019-05-21T03:34:08.250Z,101285.45
2019-05-21T03:36:40.307Z,101285.03
2019-05-21T03:39:12.232Z,101287.70
2019-05-21T03:41:43.930Z,101294.29
2019-05-21T03:44:15.746Z,101293.48
2019-05-21T03:46:47.541Z,101293.46
2019-05-21T03:49:19.334Z,101299.09
2019-05-21T03:51:51.217Z,101288.60
2019-05-21T03:54:23.289Z,101293.89
2019-05-21T03:56:55.240Z,101295.62
2019-05-21T03:59:27.187Z,101291.66
2019-05-21T04:01:59.074Z,101291.23
2019-05-21T04:04:31.181Z,101289.52
2019-05-21T04:07:02.940Z,101299.16
2019-05-21T04:09:35.043Z,101300.95
2019-05-21T04:12:06.827Z,101298.31
2019-05-21T04:14:45.797Z,101299.19
2019-05-21T04:17:36.615Z,101294.39
2019-05-21T04:20:08.149Z,101289.08
2019-05-21T04:22:52.970Z,101292.15
2019-05-21T04:25:26.195Z,101298.73
2019-05-21T04:27:58.029Z,101293.01
2019-05-21T04:30:30.030Z,101300.97
2019-05-21T04:33:01.999Z,101287.31
2019-05-21T04:35:33.914Z,101294.79
2019-05-21T04:38:06.773Z,101300.55
2019-05-21T04:40:38.578Z,101302.73
2019-05-21T04:43:10.447Z,101308.51
2019-05-21T04:45:42.249Z,101312.02
2019-05-21T04:48:14.270Z,101310.71
2019-05-21T04:50:45.932Z,101317.75
2019-05-21T04:53:17.604Z,101314.23
2019-05-21T04:55:49.401Z,101297.03
2019-05-21T04:58:21.050Z,101300.12
2019-05-21T05:00:52.973Z,101297.49
2019-05-21T05:03:24.636Z,101290.84
2019-05-21T05:05:56.442Z,101299.69
2019-05-21T05:08:28.101Z,101299.66
2019-05-21T05:10:59.785Z,101307.20
2019-05-21T05:13:32.976Z,101313.31
2019-05-21T05:16:04.727Z,101315.11
2019-05-21T05:18:37.544Z,101320.81
2019-05-21T05:21:09.453Z,101326.52
2019-05-21T05:23:41.458Z,101326.98
2019-05-21T05:26:13.308Z,101327.42
2019-05-21T05:28:44.941Z,101330.17
2019-05-21T05:31:16.845Z,101326.62
2019-05-21T05:33:48.736Z,101336.28
2019-05-21T05:36:20.402Z,101332.31
2019-05-21T05:38:52.544Z,101331.44
2019-05-21T05:41:24.240Z,101341.10
2019-05-21T05:43:55.933Z,101338.37
2019-05-21T05:46:27.833Z,101347.20
2019-05-21T05:49:05.846Z,101340.09
2019-05-21T05:51:37.554Z,101343.13
2019-05-21T05:54:09.332Z,101342.37
2019-05-21T05:56:41.196Z,101345.06
2019-05-21T05:59:14.467Z,101344.16
2019-05-21T06:01:46.485Z,101341.97
2019-05-21T06:04:18.210Z,101341.09
2019-05-21T06:06:50.013Z,101332.77
2019-05-21T06:09:22.002Z,101331.92
2019-05-21T06:11:54.780Z,101339.37
2019-05-21T06:14:26.477Z,101340.26
2019-05-21T06:16:58.165Z,101346.01
2019-05-21T06:19:29.890Z,101354.85
2019-05-21T06:22:01.698Z,101364.09
2019-05-21T06:24:33.898Z,101372.02
2019-05-21T06:27:05.901Z,101371.10
2019-05-21T06:29:39.554Z,101372.88
2019-05-21T06:32:10.766Z,101376.80
2019-05-21T06:34:42.481Z,101377.28
2019-05-21T06:37:13.979Z,101386.20
2019-05-21T06:39:45.623Z,101391.05
2019-05-21T06:42:17.128Z,101391.02
2019-05-21T06:44:48.639Z,101396.73
2019-05-21T06:47:20.205Z,101395.00
2019-05-21T06:49:51.684Z,101391.48
2019-05-21T06:52:23.316Z,101394.16
2019-05-21T06:54:54.840Z,101405.60
2019-05-21T06:57:26.381Z,101409.19
2019-05-21T06:59:58.132Z,101405.60
2019-05-21T07:02:29.641Z,101413.61
2019-05-21T07:05:01.193Z,101422.02
2019-05-21T07:07:34.555Z,101427.27
2019-05-21T07:10:07.220Z,101433.50
2019-05-21T07:12:38.761Z,101434.34
2019-05-21T07:15:10.689Z,101440.53
2019-05-21T07:17:43.232Z,101438.77
2019-05-21T07:20:15.517Z,101446.67
2019-05-21T07:22:47.688Z,101439.67
2019-05-21T07:25:19.550Z,101440.93
2019-05-21T07:27:51.064Z,101432.14
2019-05-21T07:30:22.741Z,101439.66
2019-05-21T07:32:54.615Z,101445.81
2019-05-21T07:35:26.460Z,101452.88
2019-05-21T07:37:58.332Z,101448.92
2019-05-21T07:40:29.840Z,101449.36
2019-05-21T07:43:01.593Z,101446.28
2019-05-21T07:45:33.044Z,101446.70
2019-05-21T07:48:04.940Z,101448.91
2019-05-21T07:50:36.417Z,101453.36
2019-05-21T07:53:09.053Z,101458.65
2019-05-21T07:55:40.548Z,101460.80
2019-05-21T07:58:12.278Z,101460.74
2019-05-21T08:00:43.774Z,101462.11
2019-05-21T08:03:15.303Z,101469.62
2019-05-21T08:05:46.979Z,101468.33
2019-05-21T08:08:18.631Z,101470.11
2019-05-21T08:10:52.169Z,101474.08
2019-05-21T08:13:23.716Z,101470.55
2019-05-21T08:15:55.482Z,101474.93
2019-05-21T08:18:28.835Z,101476.20
2019-05-21T08:21:00.377Z,101470.50
2019-05-21T08:23:32.225Z,101465.16
2019-05-21T08:26:03.791Z,101468.77
2019-05-21T08:28:35.398Z,101476.26
2019-05-21T08:31:07.447Z,101470.87
2019-05-21T08:33:38.945Z,101470.08
2019-05-21T08:36:10.772Z,101482.84
2019-05-21T08:38:43.618Z,101474.84
2019-05-21T08:41:15.129Z,101473.52
2019-05-21T08:43:46.623Z,101473.90
2019-05-21T08:46:18.082Z,101474.34
2019-05-21T08:48:50.501Z,101462.77
2019-05-21T08:51:21.988Z,101465.50
2019-05-21T08:53:54.749Z,101456.18
2019-05-21T08:56:26.418Z,101455.28
2019-05-21T08:58:58.168Z,101461.38
2019-05-21T09:01:29.928Z,101459.08
2019-05-21T09:04:01.581Z,101466.64
2019-05-21T09:06:33.115Z,101468.90
2019-05-21T09:09:05.968Z,101478.06
2019-05-21T09:11:37.486Z,101482.81
2019-05-21T09:14:09.059Z,101485.05
2019-05-21T09:16:40.760Z,101480.73
2019-05-21T09:19:12.456Z,101496.70
2019-05-21T09:21:44.074Z,101482.85
2019-05-21T09:24:15.758Z,101479.36
2019-05-21T09:26:47.252Z,101483.41
2019-05-21T09:29:19.242Z,101475.84
2019-05-21T09:31:50.752Z,101484.20
2019-05-21T09:34:22.165Z,101482.94
2019-05-21T09:36:53.865Z,101480.73
2019-05-21T09:39:25.588Z,101497.96
2019-05-21T09:41:57.149Z,101494.28
2019-05-21T09:44:28.964Z,101498.74
2019-05-21T09:47:01.196Z,101505.14
2019-05-21T09:49:32.638Z,101497.93
2019-05-21T09:52:04.323Z,101491.60
2019-05-21T09:54:35.771Z,101503.07
2019-05-21T09:57:09.462Z,101500.75
2019-05-21T09:59:48.888Z,101503.33
2019-05-21T10:02:23.567Z,101505.84
2019-05-21T10:04:55.033Z,101507.59
2019-05-21T10:07:39.123Z,101513.74
2019-05-21T10:10:01.649Z,101517.41
2019-05-21T10:12:33.326Z,101522.97
2019-05-21T10:15:07.144Z,101525.80
2019-05-21T10:17:38.642Z,101532.88
2019-05-21T10:20:10.699Z,101533.81
2019-05-21T10:22:44.084Z,101537.66
2019-05-21T10:25:16.099Z,101540.26
2019-05-21T10:27:47.759Z,101533.62
2019-05-21T10:30:19.765Z,101541.57
2019-05-21T10:32:54.393Z,101545.52
2019-05-21T10:35:25.908Z,101544.14
2019-05-21T10:37:57.327Z,101543.54
2019-05-21T10:40:28.876Z,101539.13
2019-05-21T10:43:00.434Z,101541.23
2019-05-21T10:45:31.967Z,101545.65
2019-05-21T10:48:03.786Z,101541.05
2019-05-21T10:50:35.520Z,101535.51
2019-05-21T10:53:08.933Z,101556.08
2019-05-21T10:55:40.828Z,101558.59
2019-05-21T10:58:12.376Z,101561.69
2019-05-21T11:00:45.810Z,101566.84
2019-05-21T11:03:21.418Z,101561.45
2019-05-21T11:06:08.975Z,101563.52
2019-05-21T11:08:28.636Z,101567.78
2019-05-21T11:11:00.178Z,101567.51
2019-05-21T11:13:31.727Z,101570.47
2019-05-21T11:16:03.165Z,101583.78
2019-05-21T11:18:35.097Z,101573.91
2019-05-21T11:21:06.931Z,101586.25
2019-05-21T11:23:38.489Z,101588.78
2019-05-21T11:26:10.244Z,101591.96
2019-05-21T11:28:41.916Z,101600.97
2019-05-21T11:31:13.426Z,101599.17
2019-05-21T11:33:45.087Z,101602.74
2019-05-21T11:36:16.602Z,101597.09
2019-05-21T11:38:49.313Z,101598.20
2019-05-21T11:41:20.853Z,101602.11
2019-05-21T11:43:54.039Z,101604.81
2019-05-21T11:46:25.755Z,101610.39
2019-05-21T11:48:57.154Z,101599.81
2019-05-21T11:51:28.986Z,101600.98
2019-05-21T11:54:00.590Z,101605.83
2019-05-21T11:56:36.210Z,101603.45
2019-05-21T11:59:09.653Z,101610.45
2019-05-21T12:01:41.545Z,101613.44
2019-05-21T12:04:13.038Z,101614.16
2019-05-21T12:06:44.796Z,101621.22
2019-05-21T12:09:16.258Z,101620.45
2019-05-21T12:11:47.955Z,101616.05
2019-05-21T12:14:21.910Z,101615.30
2019-05-21T12:16:53.650Z,101619.19
2019-05-21T12:19:25.127Z,101628.34
2019-05-21T12:21:56.704Z,101622.12
2019-05-21T12:24:29.895Z,101623.30
2019-05-21T12:27:01.418Z,101630.55
2019-05-21T12:29:34.370Z,101629.92
2019-05-21T12:32:06.159Z,101634.25
2019-05-21T12:34:39.052Z,101632.09
2019-05-21T12:37:10.786Z,101637.39
2019-05-21T12:39:42.814Z,101636.33
2019-05-21T12:42:14.386Z,101637.02
2019-05-21T12:44:46.088Z,101636.08
2019-05-21T12:47:17.624Z,101632.95
2019-05-21T12:49:49.277Z,101635.75
2019-05-21T12:52:20.879Z,101638.93
2019-05-21T12:54:52.748Z,101649.85
2019-05-21T12:57:24.278Z,101647.56
2019-05-21T12:59:55.796Z,101650.61
2019-05-21T13:02:27.509Z,101647.03
2019-05-21T13:04:59.046Z,101642.36
2019-05-21T13:07:30.701Z,101646.95
2019-05-21T13:10:02.196Z,101647.76
2019-05-21T13:12:33.958Z,101648.55
2019-05-21T13:15:06.225Z,101651.16
2019-05-21T13:17:37.727Z,101656.80
2019-05-21T13:20:10.947Z,101657.77
2019-05-21T13:22:42.740Z,101658.20
2019-05-21T13:25:14.500Z,101661.68
2019-05-21T13:27:46.190Z,101664.34
2019-05-21T13:30:18.729Z,101655.88
2019-05-21T13:32:50.283Z,101656.30
2019-05-21T13:35:21.762Z,101661.56
2019-05-21T13:37:53.368Z,101658.60
2019-05-21T13:40:25.613Z,101668.23
2019-05-21T13:42:57.207Z,101670.90
2019-05-21T13:45:28.812Z,101666.48
2019-05-21T13:48:00.414Z,101659.84
2019-05-21T13:50:31.953Z,101665.77
2019-05-21T13:53:03.778Z,101662.62
2019-05-21T13:55:36.807Z,101668.39
2019-05-21T13:58:08.689Z,101668.67
2019-05-21T14:00:53.095Z,101663.48
2019-05-21T14:03:24.653Z,101667.47
2019-05-21T14:05:56.592Z,101679.48
2019-05-21T14:08:28.255Z,101670.48
2019-05-21T14:11:00.434Z,101675.95
2019-05-21T14:13:32.242Z,101673.78
2019-05-21T14:16:05.129Z,101683.50
2019-05-21T14:18:36.917Z,101681.37
2019-05-21T14:21:08.639Z,101680.95
2019-05-21T14:23:40.306Z,101683.96
2019-05-21T14:26:14.791Z,101684.80
2019-05-21T14:28:46.487Z,101681.13
2019-05-21T14:31:18.087Z,101681.64
2019-05-21T14:33:50.568Z,101694.96
2019-05-21T14:36:22.167Z,101686.48
2019-05-21T14:38:55.674Z,101691.27
2019-05-21T14:41:27.223Z,101684.17
2019-05-21T14:43:58.932Z,101686.41
2019-05-21T14:46:30.822Z,101684.34
2019-05-21T14:49:02.392Z,101685.20
2019-05-21T14:51:34.106Z,101687.52
2019-05-21T14:54:05.951Z,101687.95
2019-05-21T14:56:37.725Z,101695.38
2019-05-21T14:59:09.304Z,101692.73
2019-05-21T15:01:41.294Z,101687.84
2019-05-21T15:04:13.304Z,101690.44
2019-05-21T15:06:45.196Z,101690.88
2019-05-21T15:09:17.168Z,101693.19
2019-05-21T15:11:48.793Z,101685.21
2019-05-21T15:14:21.181Z,101696.38
2019-05-21T15:16:52.982Z,101691.94
2019-05-21T15:19:28.115Z,101695.95
2019-05-21T15:21:59.848Z,101689.16
2019-05-21T15:24:33.618Z,101696.83
2019-05-21T15:27:05.700Z,101694.14
2019-05-21T15:29:37.546Z,101704.24
2019-05-21T15:32:09.326Z,101706.95
2019-05-21T15:34:40.861Z,101711.41
2019-05-21T15:37:12.524Z,101714.42
2019-05-21T15:39:44.506Z,101708.70
2019-05-21T15:42:17.264Z,101711.94
2019-05-21T15:44:48.908Z,101714.13
2019-05-21T15:47:20.694Z,101716.27
2019-05-21T15:49:52.297Z,101716.37
2019-05-21T15:52:24.115Z,101713.66
2019-05-21T15:54:55.778Z,101721.63
2019-05-21T15:57:27.344Z,101716.80
2019-05-21T15:59:59.599Z,101720.38
2019-05-21T16:02:31.146Z,101719.10
2019-05-21T16:05:02.767Z,101723.94
2019-05-21T16:07:34.484Z,101721.25
2019-05-21T16:10:07.039Z,101722.61
2019-05-21T16:12:38.608Z,101726.13
2019-05-21T16:15:10.836Z,101738.90
2019-05-21T16:17:43.557Z,101742.02
2019-05-21T16:20:15.633Z,101742.00
2019-05-21T16:22:47.247Z,101742.36
2019-05-21T16:25:19.298Z,101744.61
2019-05-21T16:27:51.098Z,101747.34
2019-05-21T16:30:23.057Z,101749.55
2019-05-21T16:32:54.611Z,101738.92
2019-05-21T16:35:28.573Z,101748.25
2019-05-21T16:38:00.540Z,101749.95
2019-05-21T16:40:32.200Z,101758.84
2019-05-21T16:43:03.925Z,101751.75
2019-05-21T16:45:37.081Z,101760.19
2019-05-21T16:48:09.092Z,101762.02
2019-05-21T16:50:42.689Z,101763.25
2019-05-21T16:53:14.731Z,101766.82
2019-05-21T16:55:47.068Z,101766.34
2019-05-21T16:58:18.889Z,101760.67
2019-05-21T17:00:51.298Z,101760.62
2019-05-21T17:03:23.217Z,101759.77
2019-05-21T17:05:55.076Z,101768.66
2019-05-21T17:08:26.592Z,101767.77
2019-05-21T17:10:58.594Z,101763.33
2019-05-21T17:13:30.715Z,101762.02
2019-05-21T17:16:02.291Z,101766.89
2019-05-21T17:18:34.046Z,101766.02
2019-05-21T17:21:05.627Z,101754.95
2019-05-21T17:23:38.088Z,101753.19
2019-05-21T17:26:09.713Z,101762.05
2019-05-21T17:28:41.694Z,101762.92
2019-05-21T17:31:14.142Z,101755.41
2019-05-21T17:33:46.242Z,101759.83
2019-05-21T17:36:17.872Z,101750.53
2019-05-21T17:38:49.515Z,101751.00
2019-05-21T17:41:21.201Z,101750.09
2019-05-21T17:43:52.915Z,101754.98
2019-05-21T17:46:24.730Z,101757.20
2019-05-21T17:48:56.485Z,101756.31
2019-05-21T17:51:29.897Z,101748.34
2019-05-21T17:54:03.204Z,101753.19
2019-05-21T17:56:35.035Z,101757.21
2019-05-21T17:59:06.614Z,101754.53
2019-05-21T18:01:38.412Z,101758.92
2019-05-21T18:04:12.234Z,101759.81
2019-05-21T18:06:44.135Z,101758.50
2019-05-21T18:09:16.833Z,101757.62
2019-05-21T18:11:49.145Z,101754.50
2019-05-21T18:14:21.861Z,101759.36
2019-05-21T18:16:54.955Z,101762.95
2019-05-21T18:19:27.966Z,101767.80
2019-05-21T18:22:01.595Z,101770.02
2019-05-21T18:24:34.334Z,101769.14
2019-05-21T18:27:06.113Z,101775.31
2019-05-21T18:29:37.783Z,101780.66
2019-05-21T18:32:09.545Z,101785.97
2019-05-21T18:34:41.645Z,101779.34
2019-05-21T18:37:13.784Z,101786.41
2019-05-21T18:39:45.803Z,101785.51
2019-05-21T18:42:22.405Z,101785.97
2019-05-21T18:44:50.956Z,101783.74
2019-05-21T18:47:22.522Z,101780.66
2019-05-21T18:49:55.491Z,101784.64
2019-05-21T18:52:27.428Z,101781.98
2019-05-21T18:55:00.066Z,101783.73
2019-05-21T18:57:31.767Z,101790.39
2019-05-21T19:00:03.421Z,101789.50
2019-05-21T19:02:36.750Z,101789.48
2019-05-21T19:05:09.252Z,101786.84
2019-05-21T19:07:41.795Z,101795.70
2019-05-21T19:10:15.705Z,101803.67
2019-05-21T19:12:47.339Z,101801.89
2019-05-21T19:15:19.383Z,101801.04
2019-05-21T19:17:51.219Z,101809.00
2019-05-21T19:20:23.542Z,101803.23
2019-05-21T19:22:55.566Z,101805.89
2019-05-21T19:25:28.058Z,101805.00
2019-05-21T19:27:59.747Z,101808.12
2019-05-21T19:30:32.232Z,101804.08
2019-05-21T19:33:04.407Z,101800.52
2019-05-21T19:35:36.049Z,101812.05
2019-05-21T19:38:08.194Z,101803.64
2019-05-21T19:40:41.843Z,101810.27
2019-05-21T19:43:14.972Z,101814.70
2019-05-21T19:45:46.665Z,101822.22
2019-05-21T19:48:18.660Z,101815.65
2019-05-21T19:50:52.397Z,101822.27
2019-05-21T19:53:24.228Z,101824.94
2019-05-21T19:55:56.059Z,101827.61
2019-05-21T19:58:27.742Z,101822.27
2019-05-21T20:00:59.905Z,101820.96
2019-05-21T20:03:32.767Z,101822.73
2019-05-21T20:06:04.628Z,101826.26
2019-05-21T20:08:36.608Z,101835.12
2019-05-21T20:11:11.480Z,101831.59
2019-05-21T20:13:43.134Z,101835.55
2019-05-21T20:16:16.983Z,101833.79
2019-05-21T20:18:48.881Z,101846.63
2019-05-21T20:21:22.678Z,101843.95
2019-05-21T20:23:54.740Z,101849.30
2019-05-21T20:26:28.346Z,101849.70
2019-05-21T20:29:01.768Z,101853.27
2019-05-21T20:31:33.387Z,101854.59
2019-05-21T20:34:06.746Z,101849.30
2019-05-21T20:36:40.898Z,101849.74
2019-05-21T20:39:15.090Z,101846.18
2019-05-21T20:41:47.490Z,101840.88
2019-05-21T20:44:19.976Z,101843.55
2019-05-21T20:46:55.349Z,101845.32
2019-05-21T20:49:26.972Z,101845.31
2019-05-21T20:51:58.919Z,101849.69
2019-05-21T20:54:31.954Z,101847.03
2019-05-21T20:57:05.820Z,101847.92
2019-05-21T20:59:38.298Z,101849.67
2019-05-21T21:02:12.510Z,101845.75
2019-05-21T21:04:44.142Z,101846.64
2019-05-21T21:07:16.442Z,101858.60
2019-05-21T21:09:48.142Z,101851.06
2019-05-21T21:12:20.765Z,101856.81
2019-05-21T21:14:53.550Z,101852.84
2019-05-21T21:17:25.621Z,101851.07
2019-05-21T21:19:57.349Z,101843.98
2019-05-21T21:22:28.933Z,101845.32
2019-05-21T21:25:01.047Z,101842.20
2019-05-21T21:27:35.526Z,101841.32
2019-05-21T21:30:09.003Z,101836.44
2019-05-21T21:32:41.183Z,101845.75
2019-05-21T21:35:14.041Z,101842.20
2019-05-21T21:37:47.284Z,101847.98
2019-05-21T21:40:21.092Z,101841.75
2019-05-21T21:42:53.260Z,101845.29
2019-05-21T21:45:25.132Z,101844.44
2019-05-21T21:47:56.671Z,101840.89
2019-05-21T21:50:29.379Z,101847.53
2019-05-21T21:53:00.976Z,101847.51
2019-05-21T21:55:32.945Z,101850.63
2019-05-21T21:58:04.700Z,101845.31
2019-05-21T22:01:36.988Z,101847.08
2019-05-21T22:04:12.276Z,101844.85
2019-05-21T22:06:45.775Z,101848.84
2019-05-21T22:09:43.280Z,101852.85
2019-05-21T22:12:18.677Z,101854.17
2019-05-21T22:15:02.212Z,101863.02
2019-05-21T22:17:34.546Z,101863.45
2019-05-21T22:20:08.422Z,101859.47
2019-05-21T22:22:40.030Z,101858.14
2019-05-21T22:25:12.274Z,101858.16
2019-05-21T22:27:44.018Z,101862.56
2019-05-21T22:30:17.536Z,101862.14
2019-05-21T22:32:49.186Z,101852.41
2019-05-21T22:35:20.821Z,101858.58
2019-05-21T22:37:52.381Z,101858.61
2019-05-21T22:40:25.908Z,101859.05
2019-05-21T22:42:57.476Z,101863.48
2019-05-21T22:45:29.312Z,101865.67
2019-05-21T22:48:01.369Z,101861.69
2019-05-21T22:50:33.163Z,101863.89
2019-05-21T22:53:05.478Z,101860.36
2019-05-21T22:55:37.067Z,101860.36
2019-05-21T22:58:09.008Z,101856.38
2019-05-21T23:00:41.072Z,101863.45
2019-05-21T23:03:13.254Z,101859.02
2019-05-21T23:05:45.057Z,101856.81
2019-05-21T23:08:17.589Z,101855.50
2019-05-21T23:10:49.235Z,101850.59
2019-05-21T23:13:21.124Z,101855.05
2019-05-21T23:15:53.648Z,101856.82
2019-05-21T23:18:35.797Z,101859.91
2019-05-21T23:21:19.489Z,101856.82
2019-05-21T23:23:53.319Z,101849.71
2019-05-21T23:26:25.659Z,101845.73
2019-05-21T23:28:57.236Z,101850.19
2019-05-21T23:31:30.084Z,101847.52
2019-05-21T23:34:02.432Z,101853.28
2019-05-21T23:36:34.434Z,101844.80
2019-05-21T23:39:08.779Z,101850.55
2019-05-21T23:41:41.955Z,101855.42
2019-05-21T23:44:14.231Z,101855.86
2019-05-21T23:46:45.975Z,101853.20
2019-05-21T23:49:17.513Z,101858.05
2019-05-21T23:51:49.305Z,101854.48
2019-05-21T23:54:20.988Z,101859.41
2019-05-21T23:56:54.143Z,101860.80
2019-05-21T23:59:28.037Z,101865.66
